createdAt,value
2023-04-16T00:02:18.214Z,12.35
2023-04-16T00:05:08.363Z,12.36
2023-04-16T00:07:57.572Z,12.32
2023-04-16T00:10:48.158Z,12.37
2023-04-16T00:13:38.269Z,12.35
2023-04-16T00:16:27.892Z,12.29
2023-04-16T00:19:17.569Z,12.35
2023-04-16T00:22:06.923Z,12.34
2023-04-16T00:24:56.211Z,12.37
2023-04-16T00:27:46.739Z,12.36
2023-04-16T00:30:36.126Z,12.32
2023-04-16T00:33:25.717Z,12.35
2023-04-16T00:36:14.864Z,12.36
2023-04-16T00:39:04.173Z,12.39
2023-04-16T00:41:53.637Z,12.31
2023-04-16T00:44:44.322Z,12.31
2023-04-16T00:47:33.818Z,12.29
2023-04-16T00:50:24.457Z,12.30
2023-04-16T00:53:14.375Z,12.25
2023-04-16T00:56:05.768Z,12.28
2023-04-16T00:58:56.984Z,12.30
2023-04-16T01:01:47.654Z,12.22
2023-04-16T01:04:37.376Z,12.31
2023-04-16T01:07:26.869Z,12.35
2023-04-16T01:10:16.074Z,12.37
2023-04-16T01:13:05.355Z,12.39
2023-04-16T01:15:54.880Z,12.39
2023-04-16T01:18:46.166Z,12.37
2023-04-16T01:21:36.919Z,12.37
2023-04-16T01:24:26.442Z,12.40
2023-04-16T01:27:15.788Z,12.35
2023-04-16T01:30:06.739Z,12.31
2023-04-16T01:33:18.169Z,12.39
2023-04-16T01:36:08.336Z,12.36
2023-04-16T01:38:58.983Z,12.39
2023-04-16T01:41:49.448Z,12.33
2023-04-16T01:44:38.613Z,12.38
2023-04-16T01:47:27.933Z,12.43
2023-04-16T01:50:17.580Z,12.47
2023-04-16T01:53:06.891Z,12.38
2023-04-16T01:55:57.534Z,12.46
2023-04-16T01:58:47.518Z,12.42
2023-04-16T02:01:38.744Z,12.48
2023-04-16T02:04:28.119Z,12.50
2023-04-16T02:07:17.483Z,12.45
2023-04-16T02:10:10.375Z,12.50
2023-04-16T02:13:03.219Z,12.51
2023-04-16T02:15:53.456Z,12.51
2023-04-16T02:18:57.637Z,12.54
2023-04-16T02:21:47.772Z,12.54
2023-04-16T02:24:37.685Z,12.54
2023-04-16T02:27:30.725Z,12.55
2023-04-16T02:30:29.980Z,12.55
2023-04-16T02:33:20.401Z,12.53
2023-04-16T02:36:19.965Z,12.57
2023-04-16T02:39:09.658Z,12.55
2023-04-16T02:41:59.539Z,12.63
2023-04-16T02:44:49.295Z,12.66
2023-04-16T02:47:40.022Z,12.65
2023-04-16T02:50:29.272Z,12.71
2023-04-16T02:53:18.831Z,12.74
2023-04-16T02:56:09.071Z,12.75
2023-04-16T02:58:58.206Z,12.75
2023-04-16T03:01:47.648Z,12.75
2023-04-16T03:04:38.504Z,12.75
2023-04-16T03:07:28.117Z,12.74
2023-04-16T03:10:17.409Z,12.75
2023-04-16T03:13:06.987Z,12.75
2023-04-16T03:15:56.303Z,12.77
2023-04-16T03:18:45.572Z,12.77
2023-04-16T03:21:36.237Z,12.75
2023-04-16T03:24:26.209Z,12.66
2023-04-16T03:27:15.818Z,12.76
2023-04-16T03:30:05.936Z,12.80
2023-04-16T03:32:56.992Z,12.78
2023-04-16T03:35:46.937Z,12.82
2023-04-16T03:38:38.386Z,12.79
2023-04-16T03:41:27.645Z,12.85
2023-04-16T03:44:17.082Z,12.85
2023-04-16T03:47:07.533Z,12.86
2023-04-16T03:49:57.463Z,12.87
2023-04-16T03:52:47.122Z,12.87
2023-04-16T03:55:38.633Z,12.84
2023-04-16T03:58:27.920Z,12.83
2023-04-16T04:01:18.964Z,12.86
2023-04-16T04:04:09.704Z,12.89
2023-04-16T04:06:59.836Z,12.82
2023-04-16T04:09:50.274Z,12.89
2023-04-16T04:12:40.873Z,12.85
2023-04-16T04:15:30.238Z,12.80
2023-04-16T04:18:19.620Z,12.78
2023-04-16T04:21:09.194Z,12.79
2023-04-16T04:23:58.634Z,12.81
2023-04-16T04:26:47.846Z,12.82
2023-04-16T04:29:38.890Z,12.82
2023-04-16T04:32:28.611Z,12.80
2023-04-16T04:35:17.901Z,12.79
2023-04-16T04:38:07.185Z,12.79
2023-04-16T04:40:57.657Z,12.83
2023-04-16T04:43:48.909Z,12.79
2023-04-16T04:46:40.935Z,12.82
2023-04-16T04:49:30.671Z,12.87
2023-04-16T04:52:20.580Z,12.82
2023-04-16T04:55:10.800Z,12.87
2023-04-16T04:58:00.161Z,12.83
2023-04-16T05:00:49.475Z,12.86
2023-04-16T05:03:40.229Z,12.79
2023-04-16T05:06:29.654Z,12.83
2023-04-16T05:09:18.856Z,12.84
2023-04-16T05:12:08.283Z,12.83
2023-04-16T05:14:57.542Z,12.84
2023-04-16T05:17:46.810Z,12.86
2023-04-16T05:20:38.103Z,12.81
2023-04-16T05:23:27.311Z,12.87
2023-04-16T05:26:16.711Z,12.87
2023-04-16T05:29:06.048Z,12.82
2023-04-16T05:31:55.410Z,12.85
2023-04-16T05:34:44.637Z,12.97
2023-04-16T05:37:35.305Z,12.91
2023-04-16T05:40:24.514Z,12.99
2023-04-16T05:43:13.811Z,13.00
2023-04-16T05:46:03.152Z,12.99
2023-04-16T05:48:52.378Z,13.04
2023-04-16T05:51:41.597Z,13.09
2023-04-16T05:54:32.263Z,13.14
2023-04-16T05:57:21.493Z,13.13
2023-04-16T06:00:11.527Z,13.19
2023-04-16T06:03:04.711Z,13.26
2023-04-16T06:05:54.132Z,13.31
2023-04-16T06:08:43.344Z,13.43
2023-04-16T06:11:36.280Z,13.54
2023-04-16T06:14:25.395Z,13.66
2023-04-16T06:17:14.478Z,13.68
2023-04-16T06:20:03.860Z,13.68
2023-04-16T06:22:53.188Z,13.77
2023-04-16T06:25:42.366Z,13.81
2023-04-16T06:28:33.106Z,13.86
2023-04-16T06:31:22.517Z,13.90
2023-04-16T06:34:11.884Z,13.96
2023-04-16T06:37:01.512Z,14.02
2023-04-16T06:39:50.748Z,14.00
2023-04-16T06:42:40.040Z,14.08
2023-04-16T06:45:30.791Z,14.11
2023-04-16T06:48:20.059Z,14.14
2023-04-16T06:51:09.381Z,14.10
2023-04-16T06:53:58.723Z,14.19
2023-04-16T06:56:47.900Z,14.18
2023-04-16T06:59:37.103Z,14.19
2023-04-16T07:02:27.975Z,14.24
2023-04-16T07:05:17.380Z,14.32
2023-04-16T07:08:06.961Z,14.34
2023-04-16T07:10:56.303Z,14.36
2023-04-16T07:13:45.516Z,14.38
2023-04-16T07:16:34.825Z,14.43
2023-04-16T07:19:25.835Z,14.45
2023-04-16T07:22:15.056Z,14.51
2023-04-16T07:25:04.982Z,14.55
2023-04-16T07:27:54.217Z,14.62
2023-04-16T07:30:43.433Z,14.64
2023-04-16T07:33:32.686Z,14.69
2023-04-16T07:36:23.613Z,14.72
2023-04-16T07:39:13.353Z,14.69
2023-04-16T07:42:02.839Z,14.80
2023-04-16T07:44:52.036Z,14.82
2023-04-16T07:47:41.315Z,14.85
2023-04-16T07:50:30.602Z,14.95
2023-04-16T07:53:21.311Z,15.01
2023-04-16T07:56:10.992Z,15.02
2023-04-16T07:59:07.879Z,15.09
2023-04-16T08:02:09.104Z,15.14
2023-04-16T08:04:58.635Z,15.16
2023-04-16T08:07:47.930Z,15.21
2023-04-16T08:10:38.524Z,15.17
2023-04-16T08:13:27.740Z,15.25
2023-04-16T08:16:17.081Z,15.22
2023-04-16T08:19:06.555Z,15.31
2023-04-16T08:21:56.636Z,15.31
2023-04-16T08:24:45.838Z,15.36
2023-04-16T08:27:36.490Z,15.36
2023-04-16T08:30:25.873Z,15.47
2023-04-16T08:33:15.627Z,15.56
2023-04-16T08:36:05.836Z,15.64
2023-04-16T08:38:55.205Z,15.61
2023-04-16T08:41:48.049Z,15.75
2023-04-16T08:44:43.111Z,15.82
2023-04-16T08:47:36.551Z,15.81
2023-04-16T08:50:28.429Z,15.83
2023-04-16T08:53:24.315Z,15.58
2023-04-16T08:56:14.805Z,15.94
2023-04-16T08:59:05.829Z,16.01
2023-04-16T09:02:00.220Z,16.02
2023-04-16T09:04:52.098Z,16.08
2023-04-16T09:07:43.018Z,16.33
2023-04-16T09:10:32.598Z,16.37
2023-04-16T09:13:23.646Z,16.54
2023-04-16T09:16:14.032Z,16.75
2023-04-16T09:19:05.145Z,16.90
2023-04-16T09:21:54.577Z,17.02
2023-04-16T09:24:43.995Z,17.12
2023-04-16T09:27:33.417Z,17.21
2023-04-16T09:30:28.444Z,17.25
2023-04-16T09:33:23.044Z,17.52
2023-04-16T09:36:14.002Z,17.60
2023-04-16T09:39:04.986Z,17.62
2023-04-16T09:41:56.560Z,17.70
2023-04-16T09:44:46.310Z,17.75
2023-04-16T09:47:46.503Z,17.76
2023-04-16T09:50:35.899Z,17.76
2023-04-16T09:53:31.098Z,17.76
2023-04-16T09:56:24.887Z,17.75
2023-04-16T09:59:19.076Z,17.72
2023-04-16T10:02:15.226Z,17.86
2023-04-16T10:05:08.722Z,17.93
2023-04-16T10:08:02.450Z,17.98
2023-04-16T10:10:57.288Z,18.03
2023-04-16T10:13:46.958Z,18.09
2023-04-16T10:16:36.534Z,17.90
2023-04-16T10:19:27.048Z,17.99
2023-04-16T10:22:16.552Z,17.98
2023-04-16T10:25:07.462Z,17.81
2023-04-16T10:28:00.179Z,17.85
2023-04-16T10:30:53.783Z,17.95
2023-04-16T10:33:45.541Z,18.11
2023-04-16T10:36:40.396Z,18.06
2023-04-16T10:39:30.601Z,18.22
2023-04-16T10:42:19.998Z,18.32
2023-04-16T10:45:13.079Z,18.41
2023-04-16T10:48:06.098Z,18.46
2023-04-16T10:51:00.469Z,18.40
2023-04-16T10:53:50.286Z,18.23
2023-04-16T10:56:39.907Z,18.28
2023-04-16T10:59:35.019Z,18.48
2023-04-16T11:02:30.444Z,18.75
2023-04-16T11:05:27.900Z,18.88
2023-04-16T11:08:17.663Z,19.22
2023-04-16T11:11:08.224Z,19.51
2023-04-16T11:13:58.492Z,19.86
2023-04-16T11:16:47.996Z,20.18
2023-04-16T11:19:39.464Z,20.57
2023-04-16T11:22:29.229Z,20.73
2023-04-16T11:25:22.566Z,21.13
2023-04-16T11:28:11.962Z,21.76
2023-04-16T11:31:01.415Z,22.43
2023-04-16T11:33:51.631Z,23.14
2023-04-16T11:36:51.171Z,23.32
2023-04-16T11:39:52.107Z,23.64
2023-04-16T11:42:44.375Z,23.83
2023-04-16T11:45:34.177Z,24.10
2023-04-16T11:48:23.557Z,24.60
2023-04-16T11:51:12.788Z,25.10
2023-04-16T11:54:04.038Z,25.69
2023-04-16T11:56:54.641Z,26.22
2023-04-16T12:00:01.554Z,26.33
2023-04-16T12:03:04.494Z,27.03
2023-04-16T12:05:53.818Z,27.41
2023-04-16T12:08:44.188Z,27.83
2023-04-16T12:11:41.910Z,27.91
2023-04-16T12:14:31.715Z,28.34
2023-04-16T12:17:22.136Z,28.22
2023-04-16T12:20:13.030Z,28.19
2023-04-16T12:23:02.285Z,28.11
2023-04-16T12:25:52.137Z,28.52
2023-04-16T12:28:43.232Z,28.98
2023-04-16T12:31:39.311Z,29.30
2023-04-16T12:34:48.581Z,29.79
2023-04-16T12:37:38.412Z,29.88
2023-04-16T12:40:28.218Z,30.00
2023-04-16T12:43:17.503Z,29.95
2023-04-16T12:46:09.628Z,29.43
2023-04-16T12:48:59.115Z,28.74
2023-04-16T12:51:54.104Z,28.08
2023-04-16T12:54:46.551Z,27.57
2023-04-16T12:57:35.901Z,26.86
2023-04-16T13:00:25.602Z,26.10
2023-04-16T13:03:17.958Z,25.49
2023-04-16T13:06:07.554Z,25.01
2023-04-16T13:08:57.430Z,24.74
2023-04-16T13:11:46.938Z,24.79
2023-04-16T13:14:36.433Z,25.10
2023-04-16T13:17:26.085Z,25.28
2023-04-16T13:20:16.853Z,25.54
2023-04-16T13:23:06.149Z,25.72
2023-04-16T13:25:55.538Z,25.81
2023-04-16T13:28:44.791Z,25.79
2023-04-16T13:31:34.112Z,25.72
2023-04-16T13:34:23.452Z,25.83
2023-04-16T13:37:14.453Z,25.99
2023-04-16T13:40:03.866Z,26.27
2023-04-16T13:42:53.412Z,26.15
2023-04-16T13:45:42.693Z,26.71
2023-04-16T13:48:32.853Z,26.92
2023-04-16T13:51:22.193Z,27.16
2023-04-16T13:54:13.004Z,27.54
2023-04-16T13:57:02.572Z,27.56
2023-04-16T13:59:52.296Z,27.07
2023-04-16T14:02:42.346Z,26.78
2023-04-16T14:05:31.856Z,26.23
2023-04-16T14:08:22.451Z,26.05
2023-04-16T14:11:13.773Z,26.31
2023-04-16T14:14:03.108Z,26.51
2023-04-16T14:16:52.468Z,26.48
2023-04-16T14:19:42.116Z,26.27
2023-04-16T14:22:31.458Z,26.45
2023-04-16T14:25:20.868Z,26.18
2023-04-16T14:28:14.333Z,25.86
2023-04-16T14:31:05.714Z,25.71
2023-04-16T14:33:55.098Z,25.69
2023-04-16T14:36:44.620Z,25.61
2023-04-16T14:39:34.007Z,25.61
2023-04-16T14:42:23.625Z,25.21
2023-04-16T14:45:14.536Z,24.76
2023-04-16T14:48:03.868Z,24.31
2023-04-16T14:50:53.172Z,24.13
2023-04-16T14:53:45.182Z,23.80
2023-04-16T14:56:34.529Z,23.68
2023-04-16T14:59:23.794Z,24.02
2023-04-16T15:02:14.733Z,24.04
2023-04-16T15:05:04.224Z,24.19
2023-04-16T15:07:53.866Z,24.19
2023-04-16T15:10:43.448Z,24.28
2023-04-16T15:13:34.766Z,24.71
2023-04-16T15:16:24.911Z,25.12
2023-04-16T15:19:15.623Z,25.13
2023-04-16T15:22:04.883Z,25.18
2023-04-16T15:24:54.210Z,25.22
2023-04-16T15:27:43.384Z,25.60
2023-04-16T15:30:33.046Z,25.66
2023-04-16T15:33:23.087Z,25.63
2023-04-16T15:36:13.828Z,25.55
2023-04-16T15:39:03.255Z,25.51
2023-04-16T15:42:01.566Z,25.46
2023-04-16T15:44:52.133Z,25.51
2023-04-16T15:47:42.130Z,25.48
2023-04-16T15:50:31.476Z,25.33
2023-04-16T15:53:22.419Z,24.97
2023-04-16T15:56:11.819Z,24.52
2023-04-16T15:59:01.240Z,24.19
2023-04-16T16:01:50.629Z,24.00
2023-04-16T16:04:45.879Z,23.73
2023-04-16T16:07:35.573Z,23.59
2023-04-16T16:10:26.611Z,23.57
2023-04-16T16:13:18.321Z,23.52
2023-04-16T16:16:07.744Z,23.57
2023-04-16T16:18:58.229Z,23.50
2023-04-16T16:21:47.512Z,23.47
2023-04-16T16:24:36.771Z,23.52
2023-04-16T16:27:27.498Z,23.61
2023-04-16T16:30:16.754Z,23.53
2023-04-16T16:33:06.123Z,23.56
2023-04-16T16:35:55.447Z,23.43
2023-04-16T16:38:47.403Z,23.21
2023-04-16T16:41:42.019Z,23.21
2023-04-16T16:44:32.724Z,22.97
2023-04-16T16:47:22.046Z,22.81
2023-04-16T16:50:12.604Z,22.64
2023-04-16T16:53:02.128Z,22.53
2023-04-16T16:55:51.408Z,22.45
2023-04-16T16:58:40.703Z,22.37
2023-04-16T17:01:31.798Z,22.30
2023-04-16T17:04:21.204Z,22.41
2023-04-16T17:07:10.911Z,22.36
2023-04-16T17:10:03.732Z,22.20
2023-04-16T17:12:54.831Z,22.08
2023-04-16T17:15:44.182Z,21.92
2023-04-16T17:18:35.174Z,21.85
2023-04-16T17:21:24.464Z,21.79
2023-04-16T17:24:13.911Z,21.76
2023-04-16T17:27:04.377Z,21.66
2023-04-16T17:29:59.959Z,21.71
2023-04-16T17:32:49.293Z,21.75
2023-04-16T17:35:41.391Z,21.77
2023-04-16T17:38:30.810Z,21.82
2023-04-16T17:41:20.687Z,21.77
2023-04-16T17:44:11.720Z,21.69
2023-04-16T17:47:02.246Z,21.64
2023-04-16T17:49:55.310Z,21.62
2023-04-16T17:52:47.317Z,21.56
2023-04-16T17:55:37.751Z,21.55
2023-04-16T17:58:27.440Z,21.53
2023-04-16T18:01:16.684Z,21.50
2023-04-16T18:04:07.384Z,21.44
2023-04-16T18:06:56.722Z,21.36
2023-04-16T18:09:47.915Z,21.31
2023-04-16T18:12:37.271Z,21.26
2023-04-16T18:15:26.925Z,21.16
2023-04-16T18:18:16.497Z,21.09
2023-04-16T18:21:05.865Z,20.99
2023-04-16T18:23:55.097Z,20.80
2023-04-16T18:26:47.063Z,20.73
2023-04-16T18:29:38.814Z,20.67
2023-04-16T18:32:31.059Z,20.66
2023-04-16T18:35:20.876Z,20.48
2023-04-16T18:38:10.353Z,20.47
2023-04-16T18:40:59.828Z,20.42
2023-04-16T18:43:51.010Z,20.29
2023-04-16T18:46:41.197Z,20.31
2023-04-16T18:49:30.480Z,20.23
2023-04-16T18:52:19.747Z,20.10
2023-04-16T18:55:10.402Z,20.04
2023-04-16T18:57:59.719Z,19.99
2023-04-16T19:00:55.085Z,19.88
2023-04-16T19:03:44.493Z,19.85
2023-04-16T19:06:33.811Z,19.79
2023-04-16T19:09:27.643Z,19.71
2023-04-16T19:12:16.866Z,19.63
2023-04-16T19:15:07.028Z,19.52
2023-04-16T19:17:57.772Z,19.45
2023-04-16T19:20:47.215Z,19.35
2023-04-16T19:23:36.599Z,19.31
2023-04-16T19:26:26.552Z,19.24
2023-04-16T19:29:18.008Z,19.09
2023-04-16T19:32:07.595Z,19.08
2023-04-16T19:34:58.280Z,18.97
2023-04-16T19:37:47.548Z,18.97
2023-04-16T19:40:36.838Z,18.91
2023-04-16T19:43:28.038Z,18.83
2023-04-16T19:46:18.990Z,18.76
2023-04-16T19:49:08.618Z,18.71
2023-04-16T19:51:59.358Z,18.48
2023-04-16T19:54:49.068Z,18.59
2023-04-16T19:57:38.622Z,18.54
2023-04-16T20:00:28.111Z,18.48
2023-04-16T20:03:17.368Z,18.40
2023-04-16T20:06:08.037Z,18.34
2023-04-16T20:08:58.755Z,18.36
2023-04-16T20:11:48.183Z,18.30
2023-04-16T20:14:37.441Z,18.25
2023-04-16T20:17:26.723Z,18.24
2023-04-16T20:20:16.266Z,18.21
2023-04-16T20:23:05.646Z,18.16
2023-04-16T20:25:56.557Z,18.10
2023-04-16T20:28:46.054Z,18.04
2023-04-16T20:31:35.333Z,18.03
2023-04-16T20:34:24.654Z,17.98
2023-04-16T20:37:13.983Z,17.86
2023-04-16T20:40:05.421Z,17.81
2023-04-16T20:42:56.594Z,17.77
2023-04-16T20:45:46.177Z,17.72
2023-04-16T20:48:35.817Z,17.60
2023-04-16T20:51:25.026Z,17.64
2023-04-16T20:54:14.242Z,17.59
2023-04-16T20:57:04.827Z,17.56
2023-04-16T20:59:55.868Z,17.52
2023-04-16T21:02:45.574Z,17.47
2023-04-16T21:05:35.122Z,17.46
2023-04-16T21:08:25.193Z,17.36
2023-04-16T21:11:14.366Z,17.30
2023-04-16T21:14:03.822Z,17.26
2023-04-16T21:16:54.914Z,17.19
2023-04-16T21:19:44.218Z,17.16
2023-04-16T21:22:33.548Z,17.16
2023-04-16T21:25:22.836Z,17.10
2023-04-16T21:28:12.199Z,17.01
2023-04-16T21:31:01.652Z,17.03
2023-04-16T21:33:52.348Z,16.97
2023-04-16T21:36:41.656Z,16.90
2023-04-16T21:39:31.189Z,16.85
2023-04-16T21:42:20.553Z,16.86
2023-04-16T21:45:11.159Z,16.81
2023-04-16T21:48:00.464Z,16.74
2023-04-16T21:50:58.195Z,16.63
2023-04-16T21:53:47.703Z,16.66
2023-04-16T21:56:36.887Z,16.62
2023-04-16T21:59:26.949Z,16.52
2023-04-16T22:02:16.807Z,16.53
2023-04-16T22:05:07.627Z,16.53
2023-04-16T22:07:58.347Z,16.47
2023-04-16T22:10:47.713Z,16.37
2023-04-16T22:13:38.400Z,16.36
2023-04-16T22:16:28.027Z,16.33
2023-04-16T22:19:18.312Z,16.31
2023-04-16T22:22:07.476Z,16.29
2023-04-16T22:24:59.328Z,16.22
2023-04-16T22:27:48.940Z,16.25
2023-04-16T22:30:38.209Z,16.21
2023-04-16T22:33:30.900Z,16.19
2023-04-16T22:36:21.084Z,16.18
2023-04-16T22:39:10.731Z,16.13
2023-04-16T22:42:02.086Z,16.09
2023-04-16T22:44:51.378Z,16.09
2023-04-16T22:47:41.769Z,16.11
2023-04-16T22:50:32.349Z,16.19
2023-04-16T22:53:21.974Z,16.20
2023-04-16T22:56:11.890Z,16.25
2023-04-16T22:59:02.453Z,16.28
2023-04-16T23:01:52.187Z,16.33
2023-04-16T23:04:41.620Z,16.31
2023-04-16T23:07:30.862Z,16.34
2023-04-16T23:10:20.150Z,16.31
2023-04-16T23:13:09.376Z,16.31
2023-04-16T23:16:00.532Z,16.30
2023-04-16T23:18:49.749Z,16.27
2023-04-16T23:21:39.028Z,16.24
2023-04-16T23:24:28.214Z,16.25
2023-04-16T23:27:17.409Z,16.20
2023-04-16T23:30:08.402Z,16.19
2023-04-16T23:32:59.108Z,16.13
2023-04-16T23:35:48.797Z,16.15
2023-04-16T23:38:38.070Z,16.11
2023-04-16T23:41:27.202Z,16.10
2023-04-16T23:44:16.523Z,16.08
2023-04-16T23:47:06.004Z,15.97
2023-04-16T23:49:56.736Z,16.10
2023-04-16T23:52:46.046Z,16.09
2023-04-16T23:55:35.334Z,16.13
2023-04-16T23:58:24.619Z,16.16
